Praga, Češka

02:51 AM CEST on september 16, 2014 (GMT +0200)
Jenec | Change Station
CLOSE
Current Station
Osebne vremenske postaje
Location: Jenec, Stredocesky Kraj
Višina: 1211 ft
Nearby Weather Stations

Viš 1211 ft 50.09 °N, 14.21 °E | Updated 1 minute ago

Fog
Megla
54.5 °F
Feels Like 54.5 °F
N
0.0
Veter Spremenljivo Veter od Jug
Gusts 0.0 mph

Danes
High -- | Low -- °F
--% Chance of Precip.
Yesterday
High -- | Low -- °F
Precip. -- v
6:39 AM 7:14 PM
Pojemajoča luna, 51% visible
Zračni tlak 30.06 v
Vidljivost 3.7 milje
Oblaki
Rosišče 54 °F
Vlažnost 97%
Padavine 0.00 v
Snow Depth Not available.
UV Not available.
Pollen Not available.
Air Quality Not available.
Flu Activity Not available.
METAR LKPR 160030Z 09004KT 6000 MIFG NSC 14/13 Q1018 NOSIG

More Conditions Fewer Conditions

Zračni tlak 30.06 v
Vidljivost 3.7 milje
Oblaki
Rosišče 54 °F
Vlažnost 97%
Padavine 0.00 v
Snow Depth Not available.
UV Not available.
Pollen Not available.
Air Quality Not available.
Flu Activity Not available.
METAR LKPR 160030Z 09004KT 6000 MIFG NSC 14/13 Q1018 NOSIG

More Conditions Fewer Conditions

10-Day Weather Forecast

Almanac

Astronomija

Sep. 16, 2014 Rise Set
Actual Time 6:39 AM CEST 7:14 PM CEST
Civil Twilight 6:07 AM CEST 7:47 PM CEST
Nautical Twilight 5:28 AM CEST 8:25 PM CEST
Astronomical Twilight 4:47 AM CEST 9:06 PM CEST
Moon Ni luninega vzhoda 2:49 PM CEST
Length Of Visible Light 13h 40m
Dolžina dneva
12h 34m
Tomorrow will be 3m 43s shorter.
Pojemajoča luna, 51% of the Moon is Illuminated
Sep 15
Pojemajoča luna
Sep 15
Zadnji krajec
Sep 24
New
Oct 1
Prvo četrtletje
Oct 8
Polna luna (ščip)

Yesterday's Extremes

Country Highs Country Lows

Community

WunderPhotos

Upload Photos

1,753,630 photos uploaded!

Nearby

Snow Depth

Not available.

Earthquake Activity

City Distance Mag. Time & Date
No recent earthquake activity has been reported nearby.
Minimum magnitude displayed is 2.5.

Coastal Water Temperatures

Mesto Temperatura
No Stations Reporting

Nearby Weather Stations